Time;durP1;ratioP1;P1;durP2;ratioP2;P2;SDS_P1;SDS_P2;PMS_P1;PMS_P2;Temp;Humidity;BMP_temperature;BMP_pressure;BME280_temperature;BME280_humidity;BME280_pressure;Samples;Min_cycle;Max_cycle;Signal;HPM_P1;HPM_P2
2023/04/13 00:02:32;;;;;;;42.90;20.48;;;;;;;;;;6290881;28;20118;-57
2023/04/13 00:05:33;;;;;;;41.20;21.02;;;;;;;;;;6291825;28;20048;-58
2023/04/13 00:08:34;;;;;;;37.87;19.73;;;;;;;;;;6291356;28;20487;-58
2023/04/13 00:11:37;;;;;;;40.35;19.77;;;;;;;;;;6291088;28;20122;-57
2023/04/13 00:14:38;;;;;;;47.10;21.98;;;;;;;;;;6292567;28;20052;-58
2023/04/13 00:17:38;;;;;;;46.63;20.83;;;;;;;;;;6291330;28;20070;-57
2023/04/13 00:20:40;;;;;;;43.15;21.30;;;;;;;;;;6288604;28;20530;-57
2023/04/13 00:23:41;;;;;;;49.97;22.13;;;;;;;;;;6289270;28;20083;-57
2023/04/13 00:26:41;;;;;;;45.50;21.45;;;;;;;;;;6289863;28;20128;-57
2023/04/13 00:29:42;;;;;;;46.72;20.95;;;;;;;;;;6289026;28;20059;-58
2023/04/13 00:32:44;;;;;;;39.33;20.88;;;;;;;;;;6291113;28;20059;-57
2023/04/13 00:35:44;;;;;;;44.37;21.27;;;;;;;;;;6292444;28;20049;-58
2023/04/13 00:38:45;;;;;;;45.45;21.27;;;;;;;;;;6291298;28;20301;-58
2023/04/13 00:41:45;;;;;;;45.75;22.20;;;;;;;;;;6291151;28;20048;-57
2023/04/13 00:44:46;;;;;;;42.97;21.65;;;;;;;;;;6291560;28;20051;-57
2023/04/13 00:47:49;;;;;;;41.45;20.85;;;;;;;;;;6291327;28;20055;-58
2023/04/13 00:50:50;;;;;;;42.15;21.70;;;;;;;;;;6290986;28;20045;-57
2023/04/13 00:53:50;;;;;;;39.80;20.83;;;;;;;;;;6291815;28;20495;-58
2023/04/13 00:56:53;;;;;;;39.05;19.30;;;;;;;;;;6291720;28;20052;-58
2023/04/13 00:59:54;;;;;;;;;;;;;;;;;;6291414;28;20663;-57
2023/04/13 01:02:55;;;;;;;37.63;19.05;;;;;;;;;;6291443;28;19924;-58
2023/04/13 01:06:12;;;;;;;38.97;19.10;;;;;;;;;;6291831;28;20852;-57
2023/04/13 01:09:27;;;;;;;35.47;17.20;;;;;;;;;;6284337;28;20047;-58
2023/04/13 01:12:38;;;;;;;34.42;17.80;;;;;;;;;;6285830;28;20399;-58
2023/04/13 01:15:45;;;;;;;37.28;17.58;;;;;;;;;;6286944;28;20052;-58
2023/04/13 01:18:50;;;;;;;36.17;17.73;;;;;;;;;;6296213;28;20360;-58
2023/04/13 01:21:53;;;;;;;34.25;16.52;;;;;;;;;;6295695;28;20045;-58
2023/04/13 01:25:21;;;;;;;37.00;18.52;;;;;;;;;;6294788;28;20518;-58
2023/04/13 01:28:22;;;;;;;39.28;19.40;;;;;;;;;;6293269;28;20399;-57
2023/04/13 01:31:23;;;;;;;37.15;18.50;;;;;;;;;;6295633;28;20052;-58
2023/04/13 01:34:24;;;;;;;48.05;21.40;;;;;;;;;;6294517;28;20055;-57
2023/04/13 01:37:25;;;;;;;46.70;21.10;;;;;;;;;;6295557;28;20494;-56
2023/04/13 01:40:29;;;;;;;44.55;19.90;;;;;;;;;;6295095;28;20071;-57
2023/04/13 01:43:30;;;;;;;41.78;19.25;;;;;;;;;;6291103;28;20041;-57
2023/04/13 01:46:33;;;;;;;40.67;19.35;;;;;;;;;;6286785;28;20036;-56
2023/04/13 01:49:34;;;;;;;41.97;21.10;;;;;;;;;;6290708;28;20044;-58
2023/04/13 01:52:39;;;;;;;39.95;18.90;;;;;;;;;;6295040;28;20060;-57
2023/04/13 01:55:42;;;;;;;37.45;18.60;;;;;;;;;;6285507;28;20090;-57
2023/04/13 01:58:48;;;;;;;40.10;19.30;;;;;;;;;;6294955;28;20052;-58
2023/04/13 02:01:48;;;;;;;40.72;19.70;;;;;;;;;;6295276;28;20486;-58
2023/04/13 02:04:50;;;;;;;39.85;19.02;;;;;;;;;;6294446;28;20045;-57
2023/04/13 02:07:50;;;;;;;40.35;20.25;;;;;;;;;;6294604;28;20044;-58
2023/04/13 02:10:51;;;;;;;38.13;19.77;;;;;;;;;;6294743;28;20537;-57
2023/04/13 02:13:52;;;;;;;39.53;20.77;;;;;;;;;;6294897;28;20049;-57
2023/04/13 02:16:53;;;;;;;42.58;21.33;;;;;;;;;;6293411;28;20052;-58
2023/04/13 02:19:55;;;;;;;42.83;21.15;;;;;;;;;;6291227;28;20654;-57
2023/04/13 02:22:56;;;;;;;40.83;20.48;;;;;;;;;;6280253;28;20080;-57
2023/04/13 02:25:57;;;;;;;41.10;19.17;;;;;;;;;;6286338;28;20055;-58
2023/04/13 02:28:57;;;;;;;39.78;20.23;;;;;;;;;;6287446;28;20060;-55
2023/04/13 02:31:58;;;;;;;35.00;19.20;;;;;;;;;;6290975;28;20053;-57
2023/04/13 02:34:59;;;;;;;41.40;20.23;;;;;;;;;;6293128;28;20123;-57
2023/04/13 02:38:00;;;;;;;42.40;19.67;;;;;;;;;;6289010;28;20477;-58
2023/04/13 02:41:01;;;;;;;45.63;21.98;;;;;;;;;;6278195;28;20036;-57
2023/04/13 02:44:01;;;;;;;36.10;18.20;;;;;;;;;;6291566;28;20040;-58
2023/04/13 02:47:02;;;;;;;42.10;20.05;;;;;;;;;;6293386;28;20460;-56
2023/04/13 02:50:03;;;;;;;41.80;19.88;;;;;;;;;;6293841;28;20094;-57
2023/04/13 02:53:03;;;;;;;37.45;18.15;;;;;;;;;;6293969;28;20052;-57
2023/04/13 02:56:05;;;;;;;36.30;17.85;;;;;;;;;;6292272;28;20071;-58
2023/04/13 02:59:06;;;;;;;37.75;18.02;;;;;;;;;;6293833;28;20044;-57
2023/04/13 03:02:07;;;;;;;39.90;19.40;;;;;;;;;;6291571;28;20056;-57
2023/04/13 03:05:08;;;;;;;37.60;19.97;;;;;;;;;;6292452;28;20135;-57
2023/04/13 03:08:09;;;;;;;43.45;20.65;;;;;;;;;;6292954;28;20468;-58
2023/04/13 03:11:09;;;;;;;46.10;20.90;;;;;;;;;;6293124;28;20059;-57
2023/04/13 03:14:19;;;;;;;38.33;19.83;;;;;;;;;;6291651;28;20427;-57
2023/04/13 03:17:20;;;;;;;39.40;19.25;;;;;;;;;;6291664;28;20149;-57
2023/04/13 03:20:22;;;;;;;41.38;20.80;;;;;;;;;;6283436;28;20492;-57
2023/04/13 03:23:23;;;;;;;42.67;19.38;;;;;;;;;;6292877;28;20056;-57
2023/04/13 03:26:24;;;;;;;37.92;19.27;;;;;;;;;;6291469;28;20384;-58
2023/04/13 03:29:24;;;;;;;33.53;18.95;;;;;;;;;;6292006;28;20051;-57
2023/04/13 03:32:26;;;;;;;37.10;18.23;;;;;;;;;;6285525;28;20045;-57
2023/04/13 03:35:27;;;;;;;41.10;18.83;;;;;;;;;;6291697;28;20127;-58
2023/04/13 03:38:27;;;;;;;37.83;18.75;;;;;;;;;;6292189;28;20040;-57
2023/04/13 03:41:28;;;;;;;35.67;18.08;;;;;;;;;;6284120;28;20068;-57
2023/04/13 03:44:29;;;;;;;36.70;18.33;;;;;;;;;;6289623;28;20044;-57
2023/04/13 03:47:30;;;;;;;41.00;19.35;;;;;;;;;;6288137;28;20044;-58
2023/04/13 03:50:31;;;;;;;38.15;18.15;;;;;;;;;;6293136;28;20052;-57
2023/04/13 03:53:34;;;;;;;35.95;19.13;;;;;;;;;;6290929;28;20070;-58
2023/04/13 03:56:35;;;;;;;43.40;19.73;;;;;;;;;;6291252;28;20056;-58
2023/04/13 03:59:36;;;;;;;38.13;18.42;;;;;;;;;;6290629;28;20126;-56
2023/04/13 04:02:36;;;;;;;40.63;19.40;;;;;;;;;;6287455;28;20040;-58
2023/04/13 04:05:38;;;;;;;39.33;19.90;;;;;;;;;;6286440;28;20053;-58
2023/04/13 04:08:39;;;;;;;39.78;19.08;;;;;;;;;;6287087;28;20052;-57
2023/04/13 04:11:40;;;;;;;39.38;19.38;;;;;;;;;;6288903;28;20102;-58
2023/04/13 04:14:40;;;;;;;36.15;17.58;;;;;;;;;;6290483;28;20045;-58
2023/04/13 04:17:41;;;;;;;35.75;18.83;;;;;;;;;;6291295;28;20102;-58
2023/04/13 04:20:41;;;;;;;36.83;19.13;;;;;;;;;;6292361;28;20044;-58
2023/04/13 04:23:43;;;;;;;37.25;19.77;;;;;;;;;;6291901;28;20131;-57
2023/04/13 04:26:49;;;;;;;38.88;18.83;;;;;;;;;;6290888;28;20537;-58
2023/04/13 04:29:50;;;;;;;45.20;21.77;;;;;;;;;;6292169;28;20052;-57
2023/04/13 04:32:53;;;;;;;50.08;26.00;;;;;;;;;;6278422;28;20399;-57
2023/04/13 04:35:54;;;;;;;53.67;28.50;;;;;;;;;;6291758;28;20080;-58
2023/04/13 04:38:56;;;;;;;48.58;24.50;;;;;;;;;;6291173;28;20523;-58
2023/04/13 04:42:01;;;;;;;46.97;23.00;;;;;;;;;;6290366;28;20049;-58
2023/04/13 04:45:06;;;;;;;47.80;24.30;;;;;;;;;;6285978;28;20044;-58
2023/04/13 04:48:06;;;;;;;45.80;22.70;;;;;;;;;;6290676;28;20467;-58
2023/04/13 04:51:10;;;;;;;36.83;19.67;;;;;;;;;;6294017;28;20041;-58
2023/04/13 04:54:11;;;;;;;39.15;19.98;;;;;;;;;;6296328;28;20044;-58
2023/04/13 04:57:13;;;;;;;37.97;18.95;;;;;;;;;;6295207;28;20056;-57
2023/04/13 05:00:14;;;;;;;;;;;;;;;;;;6294632;28;20048;-58
2023/04/13 05:03:14;;;;;;;40.25;20.88;;;;;;;;;;6296599;28;19927;-58
2023/04/13 05:06:15;;;;;;;37.55;19.83;;;;;;;;;;6295920;28;20518;-58
2023/04/13 05:09:17;;;;;;;40.13;21.17;;;;;;;;;;6295416;28;20123;-58
2023/04/13 05:12:18;;;;;;;42.85;21.95;;;;;;;;;;6295646;28;20075;-58
2023/04/13 05:15:19;;;;;;;41.72;22.23;;;;;;;;;;6289048;28;20127;-58
2023/04/13 05:18:20;;;;;;;43.60;22.90;;;;;;;;;;6285756;28;20075;-58
2023/04/13 05:21:20;;;;;;;49.55;25.02;;;;;;;;;;6294269;28;20052;-59
2023/04/13 05:24:21;;;;;;;54.60;26.08;;;;;;;;;;6277179;28;20122;-58
2023/04/13 05:27:21;;;;;;;52.35;26.95;;;;;;;;;;6289097;28;20041;-58
2023/04/13 05:30:22;;;;;;;56.45;27.80;;;;;;;;;;6282359;28;20078;-57
2023/04/13 05:33:23;;;;;;;46.53;24.73;;;;;;;;;;6295149;28;20110;-57
2023/04/13 05:36:25;;;;;;;43.90;22.25;;;;;;;;;;6273071;28;20075;-57
2023/04/13 05:39:26;;;;;;;35.30;18.63;;;;;;;;;;6287530;28;20467;-58
2023/04/13 05:42:27;;;;;;;31.47;15.97;;;;;;;;;;6293997;28;20044;-57
2023/04/13 05:45:27;;;;;;;33.10;16.63;;;;;;;;;;6295367;28;20052;-58
2023/04/13 05:48:28;;;;;;;35.95;16.60;;;;;;;;;;6288890;28;20036;-57
2023/04/13 05:51:30;;;;;;;33.30;15.77;;;;;;;;;;6273087;28;20037;-57
2023/04/13 05:54:31;;;;;;;;;;;;;;;;;;6286203;28;20045;-58
2023/04/13 05:57:32;;;;;;;38.83;18.20;;;;;;;;;;6293190;28;20310;-57
2023/04/13 06:00:33;;;;;;;40.15;18.50;;;;;;;;;;6277770;28;20044;-58
2023/04/13 06:03:33;;;;;;;36.28;17.40;;;;;;;;;;6273396;28;20048;-57
2023/04/13 06:06:34;;;;;;;38.92;17.08;;;;;;;;;;6270020;28;20059;-57
2023/04/13 06:09:35;;;;;;;28.55;15.73;;;;;;;;;;6269561;28;20464;-57
2023/04/13 06:12:36;;;;;;;30.75;16.58;;;;;;;;;;6270793;28;20057;-58
2023/04/13 06:15:37;;;;;;;29.00;15.82;;;;;;;;;;6269882;28;20056;-58
2023/04/13 06:18:38;;;;;;;35.50;17.80;;;;;;;;;;6269945;28;20455;-57
2023/04/13 06:21:38;;;;;;;34.38;17.88;;;;;;;;;;6269866;28;20308;-58
2023/04/13 06:24:40;;;;;;;31.38;16.25;;;;;;;;;;6269690;28;20045;-58
2023/04/13 06:27:42;;;;;;;33.50;16.40;;;;;;;;;;6269587;28;20626;-58
2023/04/13 06:30:43;;;;;;;30.58;16.08;;;;;;;;;;6269934;28;20860;-59
2023/04/13 06:33:43;;;;;;;34.50;16.25;;;;;;;;;;6269503;28;20048;-57
2023/04/13 06:36:44;;;;;;;30.38;16.55;;;;;;;;;;6268249;28;20059;-57
2023/04/13 06:39:44;;;;;;;33.22;16.17;;;;;;;;;;6269583;28;20040;-57
2023/04/13 06:42:45;;;;;;;31.08;16.90;;;;;;;;;;6270454;28;20112;-57
2023/04/13 06:45:46;;;;;;;25.08;13.88;;;;;;;;;;6269994;28;20071;-57
2023/04/13 06:48:47;;;;;;;27.90;14.87;;;;;;;;;;6267251;28;20059;-57
2023/04/13 06:51:48;;;;;;;25.38;13.38;;;;;;;;;;6270120;28;20041;-57
2023/04/13 06:54:48;;;;;;;24.88;13.15;;;;;;;;;;6270930;28;20049;-57
2023/04/13 06:57:49;;;;;;;24.88;13.23;;;;;;;;;;6268857;28;20091;-57
2023/04/13 07:00:50;;;;;;;25.73;13.10;;;;;;;;;;6270702;28;20446;-57
2023/04/13 07:03:50;;;;;;;24.27;13.18;;;;;;;;;;6269086;28;20040;-58
2023/04/13 07:06:51;;;;;;;21.05;11.82;;;;;;;;;;6269123;28;20146;-58
2023/04/13 07:09:51;;;;;;;21.17;10.73;;;;;;;;;;6270580;28;20041;-57
2023/04/13 07:12:52;;;;;;;18.85;10.75;;;;;;;;;;6271277;28;20106;-57
2023/04/13 07:15:53;;;;;;;19.00;11.00;;;;;;;;;;6269392;28;20049;-58
2023/04/13 07:18:53;;;;;;;20.13;11.30;;;;;;;;;;6268545;28;20095;-58
2023/04/13 07:21:54;;;;;;;21.33;12.05;;;;;;;;;;6270926;28;20413;-58
2023/04/13 07:24:55;;;;;;;22.63;11.27;;;;;;;;;;6270825;28;20145;-58
2023/04/13 07:27:56;;;;;;;17.63;10.23;;;;;;;;;;6268422;28;20066;-58
2023/04/13 07:30:57;;;;;;;20.00;11.20;;;;;;;;;;6272550;28;20052;-58
2023/04/13 07:33:57;;;;;;;30.13;11.95;;;;;;;;;;6270298;28;20068;-57
2023/04/13 07:36:58;;;;;;;25.83;12.38;;;;;;;;;;6268513;28;20087;-57
2023/04/13 07:39:59;;;;;;;20.95;10.75;;;;;;;;;;6269464;28;20510;-57
2023/04/13 07:43:00;;;;;;;17.40;9.45;;;;;;;;;;6268962;28;20455;-57
2023/04/13 07:46:07;;;;;;;19.70;10.73;;;;;;;;;;6268183;28;20067;-58
2023/04/13 07:49:08;;;;;;;23.08;11.68;;;;;;;;;;6267640;28;20088;-57
2023/04/13 07:52:08;;;;;;;22.73;15.13;;;;;;;;;;6271626;28;20048;-58
2023/04/13 07:55:09;;;;;;;12.68;7.10;;;;;;;;;;6268333;28;20072;-58
2023/04/13 07:58:10;;;;;;;15.43;7.72;;;;;;;;;;6269160;28;20075;-58
2023/04/13 08:01:10;;;;;;;14.68;7.45;;;;;;;;;;6268521;28;20123;-58
2023/04/13 08:04:11;;;;;;;13.88;7.80;;;;;;;;;;6269850;28;20048;-57
2023/04/13 08:07:12;;;;;;;16.98;8.13;;;;;;;;;;6267072;28;20052;-58
2023/04/13 08:10:12;;;;;;;14.90;7.70;;;;;;;;;;6269069;28;20056;-58
2023/04/13 08:13:14;;;;;;;15.00;7.85;;;;;;;;;;6269515;28;20386;-57
2023/04/13 08:16:15;;;;;;;15.98;8.00;;;;;;;;;;6269723;28;20091;-58
2023/04/13 08:19:16;;;;;;;11.83;7.53;;;;;;;;;;6269746;28;20055;-56
2023/04/13 08:22:17;;;;;;;16.85;7.50;;;;;;;;;;6269108;28;20098;-57
2023/04/13 08:25:18;;;;;;;17.95;6.93;;;;;;;;;;6273822;28;20048;-58
2023/04/13 08:28:19;;;;;;;12.82;6.70;;;;;;;;;;6273430;28;20140;-56
2023/04/13 08:31:20;;;;;;;13.80;7.93;;;;;;;;;;6274330;28;20088;-58
2023/04/13 08:34:21;;;;;;;15.60;7.50;;;;;;;;;;6274572;28;20099;-58
2023/04/13 08:37:23;;;;;;;13.07;6.57;;;;;;;;;;6268860;28;20060;-58
2023/04/13 08:40:23;;;;;;;10.23;5.20;;;;;;;;;;6271939;28;20419;-58
2023/04/13 08:43:25;;;;;;;9.23;5.45;;;;;;;;;;6275102;28;20083;-56
2023/04/13 08:46:25;;;;;;;10.43;5.90;;;;;;;;;;6271620;28;20049;-57
2023/04/13 08:49:27;;;;;;;9.85;5.53;;;;;;;;;;6273911;28;20041;-57
2023/04/13 08:52:28;;;;;;;13.77;6.35;;;;;;;;;;6273029;28;20052;-57
2023/04/13 08:55:29;;;;;;;12.27;6.20;;;;;;;;;;6272803;28;20045;-58
2023/04/13 08:58:33;;;;;;;12.52;6.88;;;;;;;;;;6269545;28;20144;-58
2023/04/13 09:01:38;;;;;;;14.63;7.75;;;;;;;;;;6274800;28;20052;-57
2023/04/13 09:04:42;;;;;;;14.40;6.97;;;;;;;;;;6270011;28;20045;-57
2023/04/13 09:07:52;;;;;;;14.07;8.00;;;;;;;;;;6273101;28;20041;-57
2023/04/13 09:10:56;;;;;;;11.15;6.45;;;;;;;;;;6270741;28;20068;-57
2023/04/13 09:13:56;;;;;;;21.02;11.15;;;;;;;;;;6272104;28;20506;-58
2023/04/13 09:16:57;;;;;;;12.70;7.15;;;;;;;;;;6273562;28;20053;-58
2023/04/13 09:20:22;;;;;;;17.40;10.02;;;;;;;;;;6272420;28;20139;-58
2023/04/13 09:23:22;;;;;;;14.15;7.80;;;;;;;;;;6273278;28;20491;-58
2023/04/13 09:26:24;;;;;;;14.35;8.10;;;;;;;;;;6283927;28;20052;-57
2023/04/13 09:29:25;;;;;;;16.60;8.55;;;;;;;;;;6279227;28;20051;-59
2023/04/13 09:32:27;;;;;;;19.43;8.90;;;;;;;;;;6271460;28;21067;-59
2023/04/13 09:35:30;;;;;;;16.10;7.50;;;;;;;;;;6269617;28;20063;-58
2023/04/13 09:38:31;;;;;;;14.60;7.32;;;;;;;;;;6270222;28;20047;-56
2023/04/13 09:41:36;;;;;;;15.88;7.85;;;;;;;;;;6271153;28;20091;-58
2023/04/13 09:44:37;;;;;;;11.77;7.05;;;;;;;;;;6282851;28;20049;-58
2023/04/13 09:47:39;;;;;;;11.27;6.82;;;;;;;;;;6285547;28;20454;-58
2023/04/13 09:50:40;;;;;;;11.55;6.38;;;;;;;;;;6272087;28;20041;-59
2023/04/13 09:53:42;;;;;;;11.52;6.30;;;;;;;;;;6271274;28;20052;-58
2023/04/13 09:56:51;;;;;;;12.52;5.97;;;;;;;;;;6269909;28;20113;-58
2023/04/13 09:59:53;;;;;;;11.23;6.72;;;;;;;;;;6269251;28;20040;-58
2023/04/13 10:02:55;;;;;;;;;;;;;;;;;;6270842;28;20040;-58
2023/04/13 10:05:56;;;;;;;10.48;5.53;;;;;;;;;;6269657;28;19932;-58
2023/04/13 10:08:57;;;;;;;11.50;5.18;;;;;;;;;;6270160;28;20057;-58
2023/04/13 10:11:58;;;;;;;11.27;5.35;;;;;;;;;;6267666;28;20499;-58
2023/04/13 10:15:15;;;;;;;9.53;4.97;;;;;;;;;;6272928;28;20063;-58
2023/04/13 10:18:33;;;;;;;9.13;4.90;;;;;;;;;;6274024;28;20076;-58
2023/04/13 10:21:39;;;;;;;8.80;4.88;;;;;;;;;;6267796;28;20048;-58
2023/04/13 10:24:40;;;;;;;10.40;4.97;;;;;;;;;;6269601;28;20486;-58
2023/04/13 10:27:41;;;;;;;8.68;4.82;;;;;;;;;;6269290;28;20041;-58
2023/04/13 10:30:49;;;;;;;9.85;5.18;;;;;;;;;;6270352;28;20053;-58
2023/04/13 10:33:50;;;;;;;10.90;4.55;;;;;;;;;;6269159;28;20445;-58
2023/04/13 10:36:54;;;;;;;9.80;4.43;;;;;;;;;;6268469;28;20049;-58
2023/04/13 10:40:06;;;;;;;15.02;5.38;;;;;;;;;;6271195;28;20472;-58
2023/04/13 10:43:07;;;;;;;10.98;5.43;;;;;;;;;;6268948;28;20048;-58
2023/04/13 10:46:11;;;;;;;10.13;5.13;;;;;;;;;;6266475;28;20144;-58
2023/04/13 10:49:12;;;;;;;11.00;4.88;;;;;;;;;;6270218;28;20078;-58
2023/04/13 10:52:14;;;;;;;11.88;4.88;;;;;;;;;;6270785;28;20640;-58
2023/04/13 10:55:15;;;;;;;11.70;5.10;;;;;;;;;;6269857;28;20040;-58
2023/04/13 10:58:17;;;;;;;10.85;4.75;;;;;;;;;;6270597;28;20049;-58
2023/04/13 11:01:17;;;;;;;9.77;4.93;;;;;;;;;;6268658;28;20093;-58
2023/04/13 11:04:18;;;;;;;23.65;8.55;;;;;;;;;;6268617;28;20045;-58
2023/04/13 11:07:22;;;;;;;12.65;6.20;;;;;;;;;;6270713;28;20045;-58
2023/04/13 11:10:27;;;;;;;10.60;6.00;;;;;;;;;;6268023;28;20053;-58
2023/04/13 11:13:28;;;;;;;11.20;5.35;;;;;;;;;;6268127;28;20049;-58
2023/04/13 11:16:28;;;;;;;11.10;5.03;;;;;;;;;;6268336;28;20080;-58
2023/04/13 11:19:29;;;;;;;8.48;5.30;;;;;;;;;;6268839;28;20488;-58
2023/04/13 11:22:34;;;;;;;12.40;4.70;;;;;;;;;;6265380;28;20079;-58
2023/04/13 11:25:34;;;;;;;7.70;4.15;;;;;;;;;;6266309;28;20420;-58
2023/04/13 11:28:40;;;;;;;8.43;4.00;;;;;;;;;;6268193;28;20052;-58
2023/04/13 11:31:41;;;;;;;7.80;4.13;;;;;;;;;;6269714;28;20052;-58
2023/04/13 11:34:41;;;;;;;8.43;4.72;;;;;;;;;;6270150;28;20049;-58
2023/04/13 11:37:48;;;;;;;9.65;4.53;;;;;;;;;;6270891;28;20558;-58
2023/04/13 11:40:50;;;;;;;7.65;4.22;;;;;;;;;;6269073;28;20076;-58
2023/04/13 11:43:52;;;;;;;7.13;3.83;;;;;;;;;;6268566;28;20052;-58
2023/04/13 11:46:53;;;;;;;7.88;3.95;;;;;;;;;;6265853;28;20077;-58
2023/04/13 11:49:54;;;;;;;7.35;3.45;;;;;;;;;;6267598;28;20057;-58
2023/04/13 11:52:55;;;;;;;7.00;4.20;;;;;;;;;;6269841;28;20094;-58
2023/04/13 11:55:56;;;;;;;7.32;4.00;;;;;;;;;;6274666;28;20135;-58
2023/04/13 11:58:57;;;;;;;9.40;3.65;;;;;;;;;;6279267;28;20625;-58
2023/04/13 12:02:01;;;;;;;7.35;3.92;;;;;;;;;;6269803;28;20123;-58
2023/04/13 12:05:01;;;;;;;8.55;4.57;;;;;;;;;;6265444;28;20051;-58
2023/04/13 12:08:02;;;;;;;7.80;4.20;;;;;;;;;;6266054;28;20048;-58
2023/04/13 12:11:05;;;;;;;7.72;3.88;;;;;;;;;;6268697;28;20053;-58
2023/04/13 12:14:06;;;;;;;7.22;4.30;;;;;;;;;;6269015;28;20580;-58
2023/04/13 12:17:10;;;;;;;8.80;4.43;;;;;;;;;;6268006;28;20044;-58
2023/04/13 12:20:15;;;;;;;13.05;5.10;;;;;;;;;;6268604;28;20044;-58
2023/04/13 12:23:20;;;;;;;9.63;6.18;;;;;;;;;;6266345;28;20095;-58
2023/04/13 12:26:23;;;;;;;12.20;6.53;;;;;;;;;;6269337;28;20507;-57
2023/04/13 12:29:24;;;;;;;9.48;5.60;;;;;;;;;;6269876;28;20063;-57
2023/04/13 12:32:25;;;;;;;12.18;7.05;;;;;;;;;;6269171;28;20033;-58
2023/04/13 12:35:26;;;;;;;14.25;5.70;;;;;;;;;;6268917;28;20044;-58
2023/04/13 12:38:27;;;;;;;8.70;4.25;;;;;;;;;;6263769;28;20488;-58
2023/04/13 12:41:27;;;;;;;7.38;3.67;;;;;;;;;;6267057;28;20498;-58
2023/04/13 12:44:28;;;;;;;8.77;4.38;;;;;;;;;;6265881;28;20748;-56
2023/04/13 12:47:28;;;;;;;8.70;4.18;;;;;;;;;;6267275;28;20051;-57
2023/04/13 12:50:30;;;;;;;6.30;3.92;;;;;;;;;;6264806;28;20041;-56
2023/04/13 12:53:30;;;;;;;9.85;5.57;;;;;;;;;;6268346;28;20041;-57
2023/04/13 12:56:31;;;;;;;6.57;3.60;;;;;;;;;;6267503;28;20550;-56
2023/04/13 12:59:32;;;;;;;7.50;3.80;;;;;;;;;;6266887;28;20053;-57
2023/04/13 13:02:32;;;;;;;8.25;3.80;;;;;;;;;;6263942;28;20492;-56
2023/04/13 13:05:33;;;;;;;5.85;3.10;;;;;;;;;;6263063;28;20044;-57
2023/04/13 13:08:33;;;;;;;5.93;3.08;;;;;;;;;;6266122;28;20041;-57
2023/04/13 13:11:34;;;;;;;6.40;3.10;;;;;;;;;;6271141;28;20084;-58
2023/04/13 13:14:35;;;;;;;9.35;3.40;;;;;;;;;;6268873;28;20052;-57
2023/04/13 13:17:39;;;;;;;10.82;5.35;;;;;;;;;;6270801;28;20051;-57
2023/04/13 13:20:40;;;;;;;11.43;5.85;;;;;;;;;;6270511;28;20132;-57
2023/04/13 13:23:40;;;;;;;11.40;6.18;;;;;;;;;;6269493;28;20044;-57
2023/04/13 13:26:41;;;;;;;12.30;6.70;;;;;;;;;;6282799;28;20048;-56
2023/04/13 13:29:42;;;;;;;12.50;6.38;;;;;;;;;;6275565;28;20412;-57
2023/04/13 13:32:42;;;;;;;14.50;6.85;;;;;;;;;;6272581;28;20558;-57
2023/04/13 13:35:43;;;;;;;11.38;6.68;;;;;;;;;;6272333;28;20526;-58
2023/04/13 13:38:45;;;;;;;12.90;7.10;;;;;;;;;;6270560;28;20057;-58
2023/04/13 13:41:46;;;;;;;13.73;7.10;;;;;;;;;;6271204;28;20113;-57
2023/04/13 13:44:47;;;;;;;11.55;7.13;;;;;;;;;;6269527;28;20045;-57
2023/04/13 13:47:52;;;;;;;12.77;7.27;;;;;;;;;;6271681;28;20048;-57
2023/04/13 13:50:54;;;;;;;13.32;6.88;;;;;;;;;;6267810;28;20049;-57
2023/04/13 13:53:55;;;;;;;13.35;7.30;;;;;;;;;;6276321;28;20044;-56
2023/04/13 13:56:56;;;;;;;14.40;7.32;;;;;;;;;;6269162;28;20103;-57
2023/04/13 13:59:57;;;;;;;12.97;6.50;;;;;;;;;;6271707;28;20037;-55
2023/04/13 14:02:57;;;;;;;14.00;6.65;;;;;;;;;;6272135;28;20049;-57
2023/04/13 14:05:58;;;;;;;12.48;6.93;;;;;;;;;;6268456;28;20059;-57
2023/04/13 14:08:59;;;;;;;14.02;6.45;;;;;;;;;;6273380;28;20940;-57
2023/04/13 14:12:00;;;;;;;13.15;6.55;;;;;;;;;;6276630;28;20044;-55
2023/04/13 14:15:01;;;;;;;12.63;7.33;;;;;;;;;;6276662;28;20040;-56
2023/04/13 14:18:02;;;;;;;12.20;7.30;;;;;;;;;;6268784;28;21498;-57
2023/04/13 14:21:07;;;;;;;11.45;7.15;;;;;;;;;;6273708;28;20384;-57
2023/04/13 14:24:08;;;;;;;12.95;7.80;;;;;;;;;;6273342;28;20052;-57
2023/04/13 14:27:09;;;;;;;15.23;8.38;;;;;;;;;;6270155;28;20044;-57
2023/04/13 14:30:10;;;;;;;15.40;8.00;;;;;;;;;;6274043;28;20542;-55
2023/04/13 14:33:13;;;;;;;14.85;8.57;;;;;;;;;;6274094;28;20401;-57
2023/04/13 14:36:15;;;;;;;15.32;8.60;;;;;;;;;;6270412;28;21169;-58
2023/04/13 14:39:16;;;;;;;16.67;9.70;;;;;;;;;;6269666;28;20060;-57
2023/04/13 14:42:16;;;;;;;16.15;9.25;;;;;;;;;;6271172;28;20175;-57
2023/04/13 14:45:18;;;;;;;14.45;9.02;;;;;;;;;;6271852;28;20337;-57
2023/04/13 14:48:18;;;;;;;15.77;9.02;;;;;;;;;;6274096;28;20082;-58
2023/04/13 14:51:19;;;;;;;17.70;9.82;;;;;;;;;;6280705;28;20562;-57
2023/04/13 14:54:20;;;;;;;16.88;10.90;;;;;;;;;;6283777;28;20820;-58
2023/04/13 14:57:20;;;;;;;16.73;10.50;;;;;;;;;;6280708;28;20052;-57
2023/04/13 15:00:25;;;;;;;17.73;11.85;;;;;;;;;;6282686;28;20430;-57
2023/04/13 15:03:27;;;;;;;21.90;12.85;;;;;;;;;;6282909;28;20055;-58
2023/04/13 15:06:28;;;;;;;25.15;15.18;;;;;;;;;;6281697;28;20052;-58
2023/04/13 15:09:28;;;;;;;25.90;14.70;;;;;;;;;;6281864;28;20550;-57
2023/04/13 15:12:29;;;;;;;24.67;14.45;;;;;;;;;;6283055;28;20067;-58
2023/04/13 15:15:31;;;;;;;23.92;14.65;;;;;;;;;;6281618;28;20665;-59
2023/04/13 15:18:32;;;;;;;23.38;14.75;;;;;;;;;;6281290;28;20125;-59
2023/04/13 15:21:35;;;;;;;25.80;15.48;;;;;;;;;;6283269;28;20060;-59
2023/04/13 15:24:36;;;;;;;25.13;15.45;;;;;;;;;;6282176;28;20584;-53
2023/04/13 15:27:37;;;;;;;23.38;13.98;;;;;;;;;;6279735;28;20048;-57
2023/04/13 15:30:39;;;;;;;23.90;14.80;;;;;;;;;;6282081;28;20059;-58
2023/04/13 15:33:39;;;;;;;27.30;13.75;;;;;;;;;;6281760;28;20051;-57
2023/04/13 15:36:40;;;;;;;22.38;13.48;;;;;;;;;;6280326;28;20048;-56
2023/04/13 15:39:40;;;;;;;23.40;13.07;;;;;;;;;;6281556;28;20048;-57
2023/04/13 15:42:41;;;;;;;23.88;13.95;;;;;;;;;;6279428;28;20054;-57
2023/04/13 15:45:41;;;;;;;23.98;13.75;;;;;;;;;;6279825;28;20396;-57
2023/04/13 15:48:42;;;;;;;23.88;14.10;;;;;;;;;;6281637;28;20483;-57
2023/04/13 15:51:43;;;;;;;24.13;13.68;;;;;;;;;;6282463;28;20053;-57
2023/04/13 15:54:44;;;;;;;24.88;14.32;;;;;;;;;;6281315;28;20079;-57
2023/04/13 15:57:44;;;;;;;24.95;13.70;;;;;;;;;;6278800;28;20476;-56
2023/04/13 16:00:45;;;;;;;26.80;14.00;;;;;;;;;;6282253;28;20061;-57
2023/04/13 16:03:45;;;;;;;24.80;13.90;;;;;;;;;;6283099;28;20052;-57
2023/04/13 16:06:47;;;;;;;25.85;13.57;;;;;;;;;;6279955;28;20044;-57
2023/04/13 16:09:57;;;;;;;24.13;12.20;;;;;;;;;;6281068;28;20045;-57
2023/04/13 16:13:00;;;;;;;25.98;13.07;;;;;;;;;;6282427;28;20421;-57
2023/04/13 16:16:02;;;;;;;22.85;13.60;;;;;;;;;;6280835;28;20049;-57
2023/04/13 16:19:03;;;;;;;;;;;;;;;;;;6279553;28;20037;-56
2023/04/13 16:22:11;;;;;;;24.42;13.98;;;;;;;;;;6280885;28;20440;-57
2023/04/13 16:25:14;;;;;;;25.50;14.32;;;;;;;;;;6281199;28;20572;-55
2023/04/13 16:28:15;;;;;;;27.50;14.93;;;;;;;;;;6281651;28;20084;-57
2023/04/13 16:31:16;;;;;;;25.20;15.07;;;;;;;;;;6278097;28;20053;-56
2023/04/13 16:34:16;;;;;;;28.02;15.55;;;;;;;;;;6281948;28;20059;-57
2023/04/13 16:37:17;;;;;;;28.65;15.82;;;;;;;;;;6279462;28;20098;-56
2023/04/13 16:40:17;;;;;;;26.38;15.25;;;;;;;;;;6281273;28;20056;-55
2023/04/13 16:43:18;;;;;;;25.98;15.45;;;;;;;;;;6281567;28;20052;-57
2023/04/13 16:46:19;;;;;;;27.92;15.27;;;;;;;;;;6283746;28;20052;-56
2023/04/13 16:49:20;;;;;;;34.03;18.15;;;;;;;;;;6282548;28;20066;-55
2023/04/13 16:52:20;;;;;;;27.20;16.65;;;;;;;;;;6285188;28;20047;-57
2023/04/13 16:55:21;;;;;;;28.15;15.77;;;;;;;;;;6282654;28;20072;-57
2023/04/13 16:58:22;;;;;;;28.23;16.73;;;;;;;;;;6279001;28;20056;-56
2023/04/13 17:01:27;;;;;;;27.43;16.33;;;;;;;;;;6281257;28;20054;-56
2023/04/13 17:04:28;;;;;;;28.92;15.38;;;;;;;;;;6283284;28;20384;-56
2023/04/13 17:07:29;;;;;;;27.05;15.73;;;;;;;;;;6279458;28;20127;-56
2023/04/13 17:10:29;;;;;;;26.52;16.15;;;;;;;;;;6279722;28;20040;-56
2023/04/13 17:13:30;;;;;;;26.95;16.45;;;;;;;;;;6280051;28;20134;-57
2023/04/13 17:16:31;;;;;;;28.35;17.50;;;;;;;;;;6278636;28;20927;-57
2023/04/13 17:19:31;;;;;;;27.05;16.25;;;;;;;;;;6281437;28;20097;-57
2023/04/13 17:22:32;;;;;;;27.02;16.35;;;;;;;;;;6281225;28;20053;-55
2023/04/13 17:25:39;;;;;;;31.45;18.38;;;;;;;;;;6280949;28;20088;-56
2023/04/13 17:28:40;;;;;;;29.35;16.83;;;;;;;;;;6280572;28;20052;-57
2023/04/13 17:31:41;;;;;;;30.42;17.40;;;;;;;;;;6281793;28;20040;-55
2023/04/13 17:34:43;;;;;;;32.95;18.63;;;;;;;;;;6278892;28;20045;-57
2023/04/13 17:37:44;;;;;;;33.67;19.05;;;;;;;;;;6274942;28;20074;-56
2023/04/13 17:40:45;;;;;;;38.58;20.40;;;;;;;;;;6280962;28;20052;-54
2023/04/13 17:43:46;;;;;;;35.40;20.15;;;;;;;;;;6281787;28;20052;-55
2023/04/13 17:46:49;;;;;;;37.08;19.98;;;;;;;;;;6280465;28;20056;-54
2023/04/13 17:49:49;;;;;;;38.50;20.85;;;;;;;;;;6280053;28;20388;-56